Time;durP1;ratioP1;P1;durP2;ratioP2;P2;SDS_P1;SDS_P2;PMS_P1;PMS_P2;Temp;Humidity;BMP_temperature;BMP_pressure;BME280_temperature;BME280_humidity;BME280_pressure;Samples;Min_cycle;Max_cycle;Signal;HPM_P1;HPM_P2
2024/03/01 00:00:14;;;;;;;72.43;32.38;;;;;;;;;;4992036;28;20061;-53
2024/03/01 00:03:02;;;;;;;65.25;30.42;;;;;;;;;;4992226;28;20065;-60
2024/03/01 00:05:55;;;;;;;69.88;31.55;;;;;;;;;;4993103;28;20528;-51
2024/03/01 00:08:42;;;;;;;70.57;31.92;;;;;;;;;;4986277;28;20054;-58
2024/03/01 00:11:36;;;;;;;66.13;30.48;;;;;;;;;;4990575;28;20113;-58
2024/03/01 00:14:30;;;;;;;61.17;30.55;;;;;;;;;;4987850;28;20058;-58
2024/03/01 00:17:24;;;;;;;59.72;29.77;;;;;;;;;;4989725;28;20057;-58
2024/03/01 00:19:58;;;;;;;73.00;32.55;;;;;;;;;;4989750;28;20105;-57
2024/03/01 00:22:54;;;;;;;72.90;32.55;;;;;;;;;;4988270;28;20050;-59
2024/03/01 00:25:46;;;;;;;65.07;29.35;;;;;;;;;;4991198;28;20078;-59
2024/03/01 00:28:33;;;;;;;57.67;28.30;;;;;;;;;;4992034;28;20133;-58
2024/03/01 00:31:27;;;;;;;57.78;28.75;;;;;;;;;;4984322;28;20529;-64
2024/03/01 00:34:14;;;;;;;60.45;29.58;;;;;;;;;;4989733;28;20054;-63
2024/03/01 00:37:08;;;;;;;57.75;26.98;;;;;;;;;;4987563;28;20117;-64
2024/03/01 00:39:55;;;;;;;60.35;29.35;;;;;;;;;;4989665;28;20054;-64
2024/03/01 00:42:49;;;;;;;62.83;29.85;;;;;;;;;;4991197;28;20054;-64
2024/03/01 00:45:36;;;;;;;60.05;28.90;;;;;;;;;;4988994;28;20057;-64
2024/03/01 00:48:32;;;;;;;55.00;27.95;;;;;;;;;;4988867;28;20057;-65
2024/03/01 00:51:17;;;;;;;54.63;27.45;;;;;;;;;;4992654;28;20140;-59
2024/03/01 00:54:12;;;;;;;53.55;26.65;;;;;;;;;;4989222;28;20065;-60
2024/03/01 00:56:59;;;;;;;59.17;29.30;;;;;;;;;;4989269;28;20061;-59
2024/03/01 00:59:53;;;;;;;52.25;27.33;;;;;;;;;;4991284;28;20053;-53
2024/03/01 01:02:54;;;;;;;54.00;26.90;;;;;;;;;;4987498;28;20057;-55
2024/03/01 01:05:41;;;;;;;56.90;28.48;;;;;;;;;;4987545;28;20055;-58
2024/03/01 01:08:35;;;;;;;59.42;29.38;;;;;;;;;;4990422;28;20112;-58
2024/03/01 01:11:22;;;;;;;57.42;28.08;;;;;;;;;;4989242;28;20050;-59
2024/03/01 01:14:16;;;;;;;58.97;28.70;;;;;;;;;;4988347;28;20088;-57
2024/03/01 01:17:03;;;;;;;63.65;29.45;;;;;;;;;;4990515;28;20113;-59
2024/03/01 01:19:58;;;;;;;54.75;27.42;;;;;;;;;;4989949;28;23919;-56
2024/03/01 01:22:45;;;;;;;54.50;26.90;;;;;;;;;;4988294;28;20061;-60
2024/03/01 01:25:41;;;;;;;59.80;28.83;;;;;;;;;;4990273;28;20083;-61
2024/03/01 01:28:26;;;;;;;58.40;28.25;;;;;;;;;;4987770;28;20466;-65
2024/03/01 01:31:21;;;;;;;55.75;28.17;;;;;;;;;;4991881;28;20058;-63
2024/03/01 01:34:07;;;;;;;65.28;28.55;;;;;;;;;;4993092;28;20074;-63
2024/03/01 01:37:03;;;;;;;61.50;27.65;;;;;;;;;;4990102;28;20496;-63
2024/03/01 01:39:48;;;;;;;57.33;28.08;;;;;;;;;;4993333;28;20082;-64
2024/03/01 01:42:42;;;;;;;65.75;30.10;;;;;;;;;;4993130;28;20501;-64
2024/03/01 01:45:30;;;;;;;62.97;29.85;;;;;;;;;;4996368;28;20113;-64
2024/03/01 01:48:23;;;;;;;65.22;30.52;;;;;;;;;;4995927;28;20149;-60
2024/03/01 01:51:12;;;;;;;63.00;28.55;;;;;;;;;;4995303;28;20054;-59
2024/03/01 01:54:06;;;;;;;64.55;30.23;;;;;;;;;;4994946;28;20050;-59
2024/03/01 01:56:54;;;;;;;64.07;28.08;;;;;;;;;;4994560;28;20528;-65
2024/03/01 01:59:47;;;;;;;69.45;30.20;;;;;;;;;;4993446;28;20116;-62
2024/03/01 02:02:50;;;;;;;66.57;29.80;;;;;;;;;;4994390;28;20046;-65
2024/03/01 02:05:43;;;;;;;66.05;30.27;;;;;;;;;;4994694;28;20065;-64
2024/03/01 02:08:39;;;;;;;65.63;29.63;;;;;;;;;;4989203;28;20108;-65
2024/03/01 02:11:33;;;;;;;70.18;29.85;;;;;;;;;;4995558;28;20073;-65
2024/03/01 02:14:20;;;;;;;61.78;28.35;;;;;;;;;;4996101;28;20046;-65
2024/03/01 02:17:14;;;;;;;66.85;29.60;;;;;;;;;;4996260;28;20053;-59
2024/03/01 02:20:02;;;;;;;68.32;30.00;;;;;;;;;;4993258;28;20059;-60
2024/03/01 02:23:00;;;;;;;72.10;30.92;;;;;;;;;;4993448;28;20057;-56
2024/03/01 02:25:47;;;;;;;76.50;31.02;;;;;;;;;;4992323;28;20042;-67
2024/03/01 02:28:44;;;;;;;71.03;29.85;;;;;;;;;;4989707;28;20080;-58
2024/03/01 02:31:31;;;;;;;71.57;30.63;;;;;;;;;;4992571;28;20054;-52
2024/03/01 02:34:25;;;;;;;75.57;30.52;;;;;;;;;;4991247;28;20410;-57
2024/03/01 02:37:12;;;;;;;67.07;30.73;;;;;;;;;;4993041;28;20117;-57
2024/03/01 02:40:06;;;;;;;74.97;32.30;;;;;;;;;;4992487;28;20147;-55
2024/03/01 02:42:53;;;;;;;79.45;32.55;;;;;;;;;;4992958;28;20494;-57
2024/03/01 02:45:47;;;;;;;75.20;31.10;;;;;;;;;;4991728;28;20164;-57
2024/03/01 02:48:34;;;;;;;74.53;31.60;;;;;;;;;;4991778;28;20077;-55
2024/03/01 02:51:28;;;;;;;79.05;32.88;;;;;;;;;;4990761;28;20518;-54
2024/03/01 02:54:22;;;;;;;79.03;31.67;;;;;;;;;;4994297;28;20042;-65
2024/03/01 02:57:16;;;;;;;77.25;32.17;;;;;;;;;;4994232;28;20139;-66
2024/03/01 03:00:10;;;;;;;71.72;29.60;;;;;;;;;;4990936;28;20163;-66
2024/03/01 03:03:04;;;;;;;79.90;32.00;;;;;;;;;;4971163;28;20049;-65
2024/03/01 03:05:51;;;;;;;84.40;31.77;;;;;;;;;;4967452;28;20051;-65
2024/03/01 03:08:45;;;;;;;78.88;31.02;;;;;;;;;;4967946;28;20417;-65
2024/03/01 03:11:32;;;;;;;81.10;31.55;;;;;;;;;;4968827;28;20490;-64
2024/03/01 03:14:31;;;;;;;83.72;31.85;;;;;;;;;;4969798;28;20351;-64
2024/03/01 03:17:25;;;;;;;80.65;32.40;;;;;;;;;;4967864;28;20058;-64
2024/03/01 03:20:19;;;;;;;83.35;32.33;;;;;;;;;;4973266;28;20069;-64
2024/03/01 03:23:06;;;;;;;84.47;32.25;;;;;;;;;;4970835;28;20056;-57
2024/03/01 03:26:00;;;;;;;89.22;32.50;;;;;;;;;;4970232;28;20070;-65
2024/03/01 03:28:47;;;;;;;86.43;32.50;;;;;;;;;;4969782;28;20054;-65
2024/03/01 03:31:41;;;;;;;86.40;33.55;;;;;;;;;;4967731;28;20114;-65
2024/03/01 03:34:28;;;;;;;88.97;34.85;;;;;;;;;;4969304;28;20054;-65
2024/03/01 03:37:22;;;;;;;99.20;36.50;;;;;;;;;;4969167;28;20066;-65
2024/03/01 03:40:15;;;;;;;98.75;34.95;;;;;;;;;;4969269;28;20536;-65
2024/03/01 03:43:09;;;;;;;99.82;33.90;;;;;;;;;;4957049;28;20541;-54
2024/03/01 03:45:56;;;;;;;92.30;33.92;;;;;;;;;;4971112;28;20050;-54
2024/03/01 03:48:50;;;;;;;95.82;34.10;;;;;;;;;;4969327;28;20594;-50
2024/03/01 03:51:38;;;;;;;106.35;37.10;;;;;;;;;;4966200;28;20086;-66
2024/03/01 03:54:32;;;;;;;105.07;36.22;;;;;;;;;;4970057;28;20062;-52
2024/03/01 03:57:19;;;;;;;105.72;37.45;;;;;;;;;;4971916;28;20059;-56
2024/03/01 04:00:19;;;;;;;103.32;34.90;;;;;;;;;;4968013;28;20061;-56
2024/03/01 04:03:13;;;;;;;106.18;35.47;;;;;;;;;;4987338;28;20204;-54
2024/03/01 04:06:07;;;;;;;103.38;35.50;;;;;;;;;;4987627;28;20136;-54
2024/03/01 04:08:54;;;;;;;115.85;37.45;;;;;;;;;;4989444;28;20742;-52
2024/03/01 04:11:47;;;;;;;104.72;36.70;;;;;;;;;;4990046;28;20148;-64
2024/03/01 04:14:34;;;;;;;110.75;38.65;;;;;;;;;;4990870;28;20393;-64
2024/03/01 04:17:31;;;;;;;107.47;36.15;;;;;;;;;;4987099;28;21778;-64
2024/03/01 04:20:18;;;;;;;111.85;38.72;;;;;;;;;;4979219;28;20085;-64
2024/03/01 04:23:12;;;;;;;115.00;39.45;;;;;;;;;;4987494;28;20054;-65
2024/03/01 04:25:59;;;;;;;102.53;36.20;;;;;;;;;;4985886;28;20713;-66
2024/03/01 04:28:53;;;;;;;111.25;39.67;;;;;;;;;;4990673;28;20050;-66
2024/03/01 04:31:43;;;;;;;114.55;40.20;;;;;;;;;;4988486;28;20422;-66
2024/03/01 04:34:34;;;;;;;112.88;39.47;;;;;;;;;;4989696;28;20564;-66
2024/03/01 04:37:27;;;;;;;107.15;38.03;;;;;;;;;;4990789;28;20078;-66
2024/03/01 04:40:21;;;;;;;97.35;36.50;;;;;;;;;;4989387;28;20066;-62
2024/03/01 04:43:08;;;;;;;105.78;39.55;;;;;;;;;;4987422;28;20065;-62
2024/03/01 04:46:02;;;;;;;106.65;39.20;;;;;;;;;;4990674;28;20077;-63
2024/03/01 04:48:50;;;;;;;94.95;37.55;;;;;;;;;;4990098;28;20157;-62
2024/03/01 04:51:43;;;;;;;97.05;39.65;;;;;;;;;;4991958;28;20506;-67
2024/03/01 04:54:31;;;;;;;104.15;39.00;;;;;;;;;;4985380;28;20529;-66
2024/03/01 04:57:24;;;;;;;88.22;35.88;;;;;;;;;;4983777;28;20661;-66
2024/03/01 05:00:12;;;;;;;98.57;36.97;;;;;;;;;;4989108;28;20102;-67
2024/03/01 05:03:12;;;;;;;102.80;38.50;;;;;;;;;;4991296;28;20053;-66
2024/03/01 05:05:59;;;;;;;103.22;35.67;;;;;;;;;;4991158;28;20514;-61
2024/03/01 05:08:53;;;;;;;93.38;36.50;;;;;;;;;;4990577;28;20141;-61
2024/03/01 05:11:41;;;;;;;93.35;36.42;;;;;;;;;;4990750;28;20057;-62
2024/03/01 05:14:36;;;;;;;72.85;26.95;;;;;;;;;;4984394;28;20132;-62
2024/03/01 05:17:21;;;;;;;84.70;32.42;;;;;;;;;;4985367;28;20741;-57
2024/03/01 05:20:16;;;;;;;74.72;31.13;;;;;;;;;;4994615;28;20058;-51
2024/03/01 05:23:02;;;;;;;78.93;31.65;;;;;;;;;;4991564;28;20402;-51
2024/03/01 05:25:58;;;;;;;81.80;31.52;;;;;;;;;;4993807;28;20057;-47
2024/03/01 05:28:45;;;;;;;71.00;28.80;;;;;;;;;;4997425;28;20058;-51
2024/03/01 05:31:48;;;;;;;84.03;32.55;;;;;;;;;;4991391;28;20100;-51
2024/03/01 05:34:35;;;;;;;71.68;29.92;;;;;;;;;;4993409;28;20536;-63
2024/03/01 05:37:29;;;;;;;61.60;27.48;;;;;;;;;;4992825;28;20061;-62
2024/03/01 05:40:20;;;;;;;67.25;26.30;;;;;;;;;;4992517;28;20136;-61
2024/03/01 05:43:24;;;;;;;66.85;26.85;;;;;;;;;;4991358;28;20060;-62
2024/03/01 05:46:14;;;;;;;88.35;36.72;;;;;;;;;;4992713;28;20066;-64
2024/03/01 05:49:11;;;;;;;74.72;31.60;;;;;;;;;;4992628;28;20058;-65
2024/03/01 05:51:58;;;;;;;82.35;34.55;;;;;;;;;;4989102;28;20055;-65
2024/03/01 05:54:52;;;;;;;90.45;32.92;;;;;;;;;;4991298;28;20053;-65
2024/03/01 05:57:40;;;;;;;77.78;31.42;;;;;;;;;;4988736;28;20183;-66
2024/03/01 06:00:46;;;;;;;76.72;31.60;;;;;;;;;;4996418;28;20057;-65
2024/03/01 06:03:33;;;;;;;67.78;29.75;;;;;;;;;;4995777;28;20078;-62
2024/03/01 06:06:27;;;;;;;83.43;35.33;;;;;;;;;;4988151;28;20509;-63
2024/03/01 06:09:16;;;;;;;83.53;33.33;;;;;;;;;;4994401;28;20053;-62
2024/03/01 06:12:08;;;;;;;77.03;31.50;;;;;;;;;;4994906;28;20120;-62
2024/03/01 06:14:55;;;;;;;81.03;34.33;;;;;;;;;;4997328;28;20421;-63
2024/03/01 06:17:49;;;;;;;75.88;33.38;;;;;;;;;;4995595;28;20053;-63
2024/03/01 06:20:43;;;;;;;78.82;32.15;;;;;;;;;;4995300;28;20064;-58
2024/03/01 06:23:37;;;;;;;80.40;35.05;;;;;;;;;;4996250;28;20775;-58
2024/03/01 06:26:24;;;;;;;77.30;33.28;;;;;;;;;;4993852;28;20058;-58
2024/03/01 06:29:18;;;;;;;89.15;35.33;;;;;;;;;;4994166;28;20053;-56
2024/03/01 06:32:06;;;;;;;77.40;33.08;;;;;;;;;;4995671;28;20117;-56
2024/03/01 06:34:59;;;;;;;79.47;36.50;;;;;;;;;;4995244;28;20800;-54
2024/03/01 06:37:46;;;;;;;75.68;32.70;;;;;;;;;;4996654;28;20049;-56
2024/03/01 06:40:40;;;;;;;73.72;32.20;;;;;;;;;;4994345;28;20080;-55
2024/03/01 06:43:27;;;;;;;75.57;33.10;;;;;;;;;;4993793;28;20057;-65
2024/03/01 06:46:23;;;;;;;69.55;32.38;;;;;;;;;;4997492;28;20568;-58
2024/03/01 06:49:15;;;;;;;69.88;32.85;;;;;;;;;;4995579;28;20050;-61
2024/03/01 06:52:02;;;;;;;65.80;29.67;;;;;;;;;;4994544;28;20238;-60
2024/03/01 06:54:57;;;;;;;57.13;28.77;;;;;;;;;;4995850;28;20049;-61
2024/03/01 06:57:43;;;;;;;67.13;29.63;;;;;;;;;;4992762;28;20505;-59
2024/03/01 07:00:51;;;;;;;56.55;29.10;;;;;;;;;;4995940;28;20097;-49
2024/03/01 07:03:45;;;;;;;55.40;27.98;;;;;;;;;;4988842;28;20210;-52
2024/03/01 07:06:39;;;;;;;52.50;26.75;;;;;;;;;;4993546;28;20054;-49
2024/03/01 07:09:26;;;;;;;51.63;26.40;;;;;;;;;;4994122;28;20046;-49
2024/03/01 07:12:20;;;;;;;51.05;26.50;;;;;;;;;;4994325;28;20041;-63
2024/03/01 07:15:08;;;;;;;54.42;27.10;;;;;;;;;;4995063;28;20128;-63
2024/03/01 07:18:03;;;;;;;49.72;26.77;;;;;;;;;;4994928;28;20057;-62
2024/03/01 07:20:52;;;;;;;47.28;25.20;;;;;;;;;;4995627;28;20078;-63
2024/03/01 07:23:44;;;;;;;41.60;23.13;;;;;;;;;;4994603;28;20106;-62
2024/03/01 07:26:38;;;;;;;45.58;23.83;;;;;;;;;;4994959;28;20057;-63
2024/03/01 07:29:32;;;;;;;46.47;24.35;;;;;;;;;;4993848;28;21830;-48
2024/03/01 07:32:19;;;;;;;48.83;24.40;;;;;;;;;;4996725;28;20104;-49
2024/03/01 07:35:13;;;;;;;46.05;24.02;;;;;;;;;;4993001;28;20490;-50
2024/03/01 07:38:00;;;;;;;42.03;23.50;;;;;;;;;;4995775;28;20060;-51
2024/03/01 07:40:54;;;;;;;43.50;24.38;;;;;;;;;;4995531;28;20054;-61
2024/03/01 07:43:41;;;;;;;44.00;23.40;;;;;;;;;;4993783;28;20050;-59
2024/03/01 07:46:38;;;;;;;39.55;22.08;;;;;;;;;;4996158;28;20061;-59
2024/03/01 07:49:25;;;;;;;41.25;20.35;;;;;;;;;;4996545;28;20046;-59
2024/03/01 07:52:18;;;;;;;39.90;21.50;;;;;;;;;;4998253;28;20050;-58
2024/03/01 07:55:12;;;;;;;39.10;20.25;;;;;;;;;;4991500;28;20479;-60
2024/03/01 07:58:06;;;;;;;40.40;19.98;;;;;;;;;;4993272;28;20137;-57
2024/03/01 08:01:00;;;;;;;36.13;20.27;;;;;;;;;;4992654;28;20053;-51
2024/03/01 08:04:01;;;;;;;42.20;19.88;;;;;;;;;;4990908;28;20309;-57
2024/03/01 08:06:55;;;;;;;37.08;18.67;;;;;;;;;;4990560;28;20089;-56
2024/03/01 08:09:48;;;;;;;38.03;20.27;;;;;;;;;;4991004;28;20090;-58
2024/03/01 08:12:36;;;;;;;35.47;18.25;;;;;;;;;;4992516;28;20595;-65
2024/03/01 08:15:32;;;;;;;40.20;20.58;;;;;;;;;;4991084;28;20053;-65
2024/03/01 08:18:19;;;;;;;37.35;19.60;;;;;;;;;;4992735;28;20057;-65
2024/03/01 08:21:14;;;;;;;36.90;18.33;;;;;;;;;;4991769;28;20058;-66
2024/03/01 08:24:01;;;;;;;;;;;;;;;;;;4990832;28;20046;-65
2024/03/01 08:26:54;;;;;;;34.25;16.92;;;;;;;;;;4990102;28;20003;-57
2024/03/01 08:29:42;;;;;;;35.42;17.65;;;;;;;;;;4987465;28;20062;-57
2024/03/01 08:32:36;;;;;;;34.67;19.48;;;;;;;;;;4990743;28;20457;-57
2024/03/01 08:35:23;;;;;;;38.65;19.38;;;;;;;;;;4991176;28;20046;-57
2024/03/01 08:38:35;;;;;;;34.70;18.85;;;;;;;;;;4989241;28;20540;-56
2024/03/01 08:41:26;;;;;;;41.95;19.17;;;;;;;;;;4989645;28;20422;-49
2024/03/01 08:44:39;;;;;;;38.28;18.83;;;;;;;;;;4985747;28;20050;-54
2024/03/01 08:47:34;;;;;;;45.67;21.80;;;;;;;;;;4992409;28;20053;-52
2024/03/01 08:50:27;;;;;;;36.08;19.13;;;;;;;;;;4996707;28;20137;-49
2024/03/01 08:53:32;;;;;;;33.60;18.33;;;;;;;;;;4994108;28;20062;-54
2024/03/01 08:56:52;;;;;;;35.15;18.45;;;;;;;;;;4999823;28;20931;-61
2024/03/01 08:59:47;;;;;;;39.38;19.38;;;;;;;;;;4995598;28;20155;-61
2024/03/01 09:02:49;;;;;;;36.05;17.10;;;;;;;;;;4994765;28;20464;-61
2024/03/01 09:05:43;;;;;;;35.78;16.60;;;;;;;;;;4997784;28;20054;-66
2024/03/01 09:08:30;;;;;;;33.28;15.95;;;;;;;;;;4995429;28;20054;-61
2024/03/01 09:11:24;;;;;;;39.08;18.23;;;;;;;;;;4994534;28;20497;-59
2024/03/01 09:14:17;;;;;;;34.33;16.70;;;;;;;;;;4997819;28;20133;-62
2024/03/01 09:17:12;;;;;;;34.85;17.55;;;;;;;;;;4994795;28;20057;-56
2024/03/01 09:20:15;;;;;;;36.13;18.65;;;;;;;;;;4996534;28;20057;-58
2024/03/01 09:23:07;;;;;;;34.80;18.45;;;;;;;;;;4992242;28;20133;-56
2024/03/01 09:26:02;;;;;;;36.92;18.00;;;;;;;;;;4997353;28;20104;-55
2024/03/01 09:28:49;;;;;;;39.37;19.33;;;;;;;;;;4994147;28;20405;-55
2024/03/01 09:31:43;;;;;;;36.92;18.48;;;;;;;;;;4993505;28;20054;-56
2024/03/01 09:34:34;;;;;;;36.60;17.83;;;;;;;;;;4995666;28;20070;-61
2024/03/01 09:37:29;;;;;;;30.73;15.68;;;;;;;;;;4993042;28;20132;-45
2024/03/01 09:40:34;;;;;;;32.67;16.80;;;;;;;;;;4994215;28;20058;-46
2024/03/01 09:43:38;;;;;;;35.03;16.58;;;;;;;;;;4995509;28;20576;-52
2024/03/01 09:46:27;;;;;;;35.10;17.55;;;;;;;;;;4994972;28;20061;-49
2024/03/01 09:49:27;;;;;;;38.30;16.70;;;;;;;;;;4996061;28;20062;-46
2024/03/01 09:52:30;;;;;;;27.85;15.00;;;;;;;;;;4992142;28;20058;-45
2024/03/01 09:55:33;;;;;;;36.05;15.90;;;;;;;;;;4993580;28;21185;-51
2024/03/01 09:58:23;;;;;;;29.88;13.77;;;;;;;;;;4995341;28;20058;-46
2024/03/01 10:01:36;;;;;;;27.38;14.55;;;;;;;;;;4990824;28;20066;-56
2024/03/01 10:04:33;;;;;;;32.50;16.33;;;;;;;;;;4986507;28;20054;-63
2024/03/01 10:07:31;;;;;;;36.35;16.55;;;;;;;;;;4982447;28;20054;-63
2024/03/01 10:10:30;;;;;;;37.67;17.27;;;;;;;;;;4991250;28;20235;-64
2024/03/01 10:13:31;;;;;;;32.83;17.08;;;;;;;;;;4991169;28;20068;-62
2024/03/01 10:16:45;;;;;;;32.47;16.15;;;;;;;;;;4985979;28;20076;-62
2024/03/01 10:19:39;;;;;;;34.40;16.00;;;;;;;;;;4992647;28;20061;-56
2024/03/01 10:22:42;;;;;;;31.80;16.40;;;;;;;;;;4994148;28;20104;-56
2024/03/01 10:25:48;;;;;;;36.42;16.90;;;;;;;;;;4998061;28;20624;-57
2024/03/01 10:28:58;;;;;;;31.50;17.20;;;;;;;;;;4998733;28;20054;-57
2024/03/01 10:31:52;;;;;;;31.40;17.17;;;;;;;;;;4995505;28;20054;-57
2024/03/01 10:34:54;;;;;;;39.28;16.83;;;;;;;;;;4998691;28;20757;-49
2024/03/01 10:37:51;;;;;;;34.60;17.52;;;;;;;;;;4995483;28;20402;-48
2024/03/01 10:40:47;;;;;;;34.10;16.27;;;;;;;;;;4995187;28;20836;-49
2024/03/01 10:43:44;;;;;;;35.40;17.27;;;;;;;;;;4996195;28;20061;-50
2024/03/01 10:46:49;;;;;;;31.50;14.77;;;;;;;;;;4998330;28;20046;-50
2024/03/01 10:50:01;;;;;;;37.45;16.63;;;;;;;;;;4999729;28;20056;-61
2024/03/01 10:52:58;;;;;;;37.15;17.73;;;;;;;;;;4994518;28;20046;-61
2024/03/01 10:55:59;;;;;;;38.03;16.02;;;;;;;;;;4995839;28;20131;-61
2024/03/01 10:58:53;;;;;;;35.53;16.75;;;;;;;;;;4995412;28;20069;-57
2024/03/01 11:02:00;;;;;;;33.20;16.70;;;;;;;;;;4995458;28;20060;-58
2024/03/01 11:04:53;;;;;;;30.98;15.55;;;;;;;;;;4994308;28;20608;-59
2024/03/01 11:08:01;;;;;;;33.22;16.27;;;;;;;;;;4993731;28;20108;-59
2024/03/01 11:10:55;;;;;;;32.03;16.75;;;;;;;;;;4997242;28;20391;-58
2024/03/01 11:13:48;;;;;;;;;;;;;;;;;;4996034;28;20050;-60
2024/03/01 11:16:43;;;;;;;35.25;16.63;;;;;;;;;;4995388;28;20016;-66
2024/03/01 11:19:37;;;;;;;33.05;16.58;;;;;;;;;;4994468;28;20138;-64
2024/03/01 11:22:24;;;;;;;33.88;17.98;;;;;;;;;;4989068;28;20793;-64
2024/03/01 11:25:19;;;;;;;36.50;16.73;;;;;;;;;;4993242;28;20121;-65
2024/03/01 11:28:16;;;;;;;30.23;16.13;;;;;;;;;;4993861;28;20150;-61
2024/03/01 11:31:07;;;;;;;37.90;15.25;;;;;;;;;;4999531;28;20120;-64
2024/03/01 11:34:02;;;;;;;33.75;15.40;;;;;;;;;;4995371;28;20078;-63
2024/03/01 11:37:06;;;;;;;33.97;15.90;;;;;;;;;;4993446;28;20049;-64
2024/03/01 11:40:05;;;;;;;30.63;15.85;;;;;;;;;;4998900;28;20334;-64
2024/03/01 11:42:59;;;;;;;36.63;16.30;;;;;;;;;;5000989;28;20075;-63
2024/03/01 11:46:06;;;;;;;33.40;16.25;;;;;;;;;;4999704;28;20046;-64
2024/03/01 11:49:01;;;;;;;37.13;18.02;;;;;;;;;;4997519;28;20588;-65
2024/03/01 11:51:55;;;;;;;35.90;18.17;;;;;;;;;;4992333;28;20537;-65
2024/03/01 11:54:52;;;;;;;32.20;16.35;;;;;;;;;;4997737;28;20061;-44
